Startpagina
METAR-TAF:

METAR-TAF

Vliegvelden :

Aeropuerto Federico García Lorca Granada-Jaén

Granada, Spanje

breedte: 37-11N, lengte: 003-47W, hoogte: 567 m

Actueel weer

Dit bericht is 42 minuten geleden gemaakt, om 10:30 UTC
Wind 4 kt uit het westen, variërend tussen het westzuidwesten en het noordnoordoosten
Temperatuur 29°C
Vochtigheid 37%
Druk 1016 hPa
Zicht 10 km of meer
geen wolken onder 1500 m en geen cumulonimbus

METAR: LEGR 171030Z 28004KT 240V020 CAVOK 29/13 Q1016

Tijdstip: 13:12 (11:12 UTC)

Verwachting

Dit bericht is 3 uur en het 12 minuten geleden gemaakt, om 08:00 UTC
Verwachting geldig van 17 om 09 UTC tot 18 om 09 UTC
Wind 2 kt uit variabele richting
Zicht 10 km of meer
geen wolken onder 1500 m en geen cumulonimbus
Wijzigt naar
van 17 om 12 UTC tot 17 om 15 UTC
Wind 10 kt uit het westen
Wijzigt naar
van 17 om 20 UTC tot 17 om 23 UTC
Wind 3 kt uit variabele richting

TAF: LEGR 170800Z 1709/1809 VRB02KT CAVOK TX35/1715Z TN18/1805Z BECMG 1712/1715 26010KT BECMG 1720/1723 VRB03KT

Waarnemingen en weersverwachtingen van meer dan 4000 vliegvelden (METAR en TAF).

De beschikbare stations zijn de gele en rode punten op de kaart.

Ga met uw muis naar het station om de naam te zien.

Klik dan om waarnemingen en weersverwachtingen te zien.

kaart wijzigen: klik op de groene knoppen met een zwart kruis om in te zoomen, op de groene knop met een streepje om uit te zoomen of op de groene pijlen voor aangrenzende kaarten.


METAR-TAF: